Terminal Aerodrome Forecast
Issued by NWS

Home | Current Version | Previous Version | Text Only | Print | Product List | Glossary On
Versions: 1 2 3 4 5 6 7 8 9 10 11 12 13 14 15 16 17 18 19 20 21 22 23 24 25 26 27 28 29 30
000
FTUS44 KCRP 042334
TAFCOT
TAF
KCOT 042334Z 0500/0524 11008KT P6SM SCT050
     FM051000 13004KT P6SM SCT020
      TEMPO 0512/0514 BKN015
     FM051400 16007KT P6SM SCT035=

USA.gov is the U.S. government's official web portal to all federal, state and local government web resources and services.